Time;durP1;ratioP1;P1;durP2;ratioP2;P2;SDS_P1;SDS_P2;PMS_P1;PMS_P2;Temp;Humidity;BMP_temperature;BMP_pressure;BME280_temperature;BME280_humidity;BME280_pressure;Samples;Min_cycle;Max_cycle;Signal;HPM_P1;HPM_P2
2021/01/19 00:05:50;;;;;;;11.57;10.38;;;;;;;;;;4403154;28;20105;-50
2021/01/19 00:08:16;;;;;;;12.37;11.18;;;;;;;;;;4218823;34;20139;-52
2021/01/19 00:10:42;;;;;;;14.77;11.05;;;;;;;;;;4216187;34;20129;-50
2021/01/19 00:13:08;;;;;;;12.13;10.88;;;;;;;;;;4218620;34;20114;-50
2021/01/19 00:15:34;;;;;;;12.32;11.02;;;;;;;;;;4218901;33;20327;-49
2021/01/19 00:17:59;;;;;;;11.95;10.38;;;;;;;;;;4218720;34;20204;-49
2021/01/19 00:20:25;;;;;;;12.23;10.93;;;;;;;;;;4218767;33;20133;-50
2021/01/19 00:22:51;;;;;;;11.60;10.40;;;;;;;;;;4218811;34;20708;-48
2021/01/19 00:25:17;;;;;;;12.93;11.63;;;;;;;;;;4218647;33;20474;-51
2021/01/19 00:27:43;;;;;;;13.13;11.77;;;;;;;;;;4218407;34;20216;-49
2021/01/19 00:30:09;;;;;;;13.60;12.07;;;;;;;;;;4218537;33;20128;-49
2021/01/19 00:32:35;;;;;;;13.32;10.95;;;;;;;;;;4218754;34;20524;-50
2021/01/19 00:35:01;;;;;;;14.40;12.43;;;;;;;;;;4218632;33;20191;-49
2021/01/19 00:37:27;;;;;;;14.80;11.90;;;;;;;;;;4218295;34;20115;-49
2021/01/19 00:39:53;;;;;;;13.55;11.95;;;;;;;;;;4218730;33;20144;-49
2021/01/19 00:42:18;;;;;;;12.65;11.32;;;;;;;;;;4218709;34;20558;-53
2021/01/19 00:44:44;;;;;;;12.10;10.90;;;;;;;;;;4218224;33;20170;-49
2021/01/19 00:47:10;;;;;;;12.07;10.88;;;;;;;;;;4218543;34;20114;-50
2021/01/19 00:49:36;;;;;;;12.07;10.80;;;;;;;;;;4218097;33;20098;-48
2021/01/19 00:52:02;;;;;;;12.82;10.95;;;;;;;;;;4212824;34;20153;-48
2021/01/19 00:54:28;;;;;;;13.68;12.23;;;;;;;;;;4204209;34;20125;-48
2021/01/19 00:56:53;;;;;;;12.98;11.65;;;;;;;;;;4204343;34;20473;-51
2021/01/19 00:59:19;;;;;;;13.52;12.13;;;;;;;;;;4204353;34;20141;-49
2021/01/19 01:01:49;;;;;;;13.90;11.48;;;;;;;;;;4191669;34;20101;-49
2021/01/19 01:04:15;;;;;;;13.13;11.82;;;;;;;;;;4190752;34;20539;-50
2021/01/19 01:06:41;;;;;;;12.82;11.52;;;;;;;;;;4202500;34;20549;-50
2021/01/19 01:09:07;;;;;;;13.62;11.88;;;;;;;;;;4204304;34;20090;-51
2021/01/19 01:11:41;;;;;;;13.43;12.02;;;;;;;;;;4204331;34;20610;-51
2021/01/19 01:14:06;;;;;;;13.13;11.82;;;;;;;;;;4204411;34;20137;-51
2021/01/19 01:16:32;;;;;;;13.00;11.70;;;;;;;;;;4204251;34;20132;-49
2021/01/19 01:18:58;;;;;;;14.30;12.80;;;;;;;;;;4203751;34;20117;-48
2021/01/19 01:21:24;;;;;;;13.35;11.55;;;;;;;;;;4204389;34;20121;-49
2021/01/19 01:23:50;;;;;;;12.48;11.10;;;;;;;;;;4204360;34;20446;-48
2021/01/19 01:26:18;;;;;;;12.80;11.38;;;;;;;;;;4204092;34;20090;-51
2021/01/19 01:28:45;;;;;;;12.35;11.15;;;;;;;;;;4203889;34;20530;-50
2021/01/19 01:31:11;;;;;;;12.13;10.88;;;;;;;;;;4204120;34;20121;-50
2021/01/19 01:33:37;;;;;;;14.05;11.32;;;;;;;;;;4204211;34;20200;-49
2021/01/19 01:36:03;;;;;;;12.30;10.93;;;;;;;;;;4204174;34;20445;-49
2021/01/19 01:38:29;;;;;;;12.02;10.82;;;;;;;;;;4204040;34;20177;-51
2021/01/19 01:40:55;;;;;;;13.00;11.25;;;;;;;;;;4204179;34;20113;-48
2021/01/19 01:43:21;;;;;;;12.68;11.38;;;;;;;;;;4204431;34;20108;-50
2021/01/19 01:45:47;;;;;;;12.93;11.63;;;;;;;;;;4203994;34;20137;-49
2021/01/19 01:48:13;;;;;;;12.32;10.38;;;;;;;;;;4203717;34;20118;-52
2021/01/19 01:50:39;;;;;;;11.95;10.75;;;;;;;;;;4179352;34;20118;-49
2021/01/19 01:53:08;;;;;;;12.73;11.43;;;;;;;;;;4179898;34;20101;-51
2021/01/19 01:55:34;;;;;;;12.57;11.27;;;;;;;;;;4190931;34;20117;-49
2021/01/19 01:58:00;;;;;;;13.55;11.35;;;;;;;;;;4179654;34;20114;-50
2021/01/19 02:00:26;;;;;;;13.30;11.65;;;;;;;;;;4179477;34;20142;-53
2021/01/19 02:02:53;;;;;;;12.65;11.35;;;;;;;;;;4204014;34;20137;-52
2021/01/19 02:05:19;;;;;;;12.88;11.52;;;;;;;;;;4203287;34;20112;-50
2021/01/19 02:08:10;;;;;;;12.70;11.40;;;;;;;;;;4203517;34;20118;-50
2021/01/19 02:10:58;;;;;;;14.15;12.75;;;;;;;;;;4204012;34;20616;-49
2021/01/19 02:13:52;;;;;;;14.57;12.30;;;;;;;;;;4203894;34;20132;-50
2021/01/19 02:16:30;;;;;;;13.07;11.68;;;;;;;;;;4203656;34;20101;-48
2021/01/19 02:19:02;;;;;;;12.63;11.32;;;;;;;;;;4205073;34;20439;-50
2021/01/19 02:21:43;;;;;;;12.40;11.10;;;;;;;;;;4205478;34;20109;-50
2021/01/19 02:24:26;;;;;;;13.30;11.82;;;;;;;;;;4205775;34;20510;-51
2021/01/19 02:27:09;;;;;;;12.37;11.07;;;;;;;;;;4193959;34;20573;-51
2021/01/19 02:30:01;;;;;;;12.50;11.18;;;;;;;;;;4181326;34;20102;-50
2021/01/19 02:33:03;;;;;;;13.07;11.68;;;;;;;;;;4195280;34;20102;-53
2021/01/19 02:35:37;;;;;;;12.48;11.25;;;;;;;;;;4194706;34;20149;-50
2021/01/19 02:38:33;;;;;;;13.00;11.70;;;;;;;;;;4205724;34;20174;-55
2021/01/19 02:40:59;;;;;;;13.52;11.88;;;;;;;;;;4179196;34;20090;-49
2021/01/19 02:43:25;;;;;;;13.75;12.10;;;;;;;;;;4191877;34;20435;-50
2021/01/19 02:45:55;;;;;;;14.43;12.15;;;;;;;;;;4199466;34;20090;-49
2021/01/19 02:48:22;;;;;;;15.20;13.25;;;;;;;;;;4205403;34;20125;-55
2021/01/19 02:50:47;;;;;;;15.27;12.15;;;;;;;;;;4205476;34;20224;-49
2021/01/19 02:53:14;;;;;;;14.68;12.02;;;;;;;;;;4205917;34;20497;-51
2021/01/19 02:55:40;;;;;;;13.68;12.27;;;;;;;;;;4205375;34;20125;-51
2021/01/19 02:58:38;;;;;;;14.02;12.52;;;;;;;;;;4192686;34;20117;-52
2021/01/19 03:01:34;;;;;;;13.85;11.85;;;;;;;;;;4205406;34;20698;-52
2021/01/19 03:04:00;;;;;;;11.32;10.13;;;;;;;;;;4194320;34;20190;-56
2021/01/19 03:06:27;;;;;;;12.88;11.12;;;;;;;;;;4192676;34;20248;-54
2021/01/19 03:08:53;;;;;;;13.75;12.35;;;;;;;;;;4181011;34;20129;-49
2021/01/19 03:11:19;;;;;;;14.20;12.15;;;;;;;;;;4178724;34;20137;-56
2021/01/19 03:13:46;;;;;;;13.07;11.05;;;;;;;;;;4191901;34;20482;-49
2021/01/19 03:16:13;;;;;;;12.95;11.57;;;;;;;;;;4200971;34;20104;-52
2021/01/19 03:18:41;;;;;;;12.07;10.68;;;;;;;;;;4205250;34;20125;-51
2021/01/19 03:21:07;;;;;;;12.65;10.40;;;;;;;;;;4205106;34;20110;-50
2021/01/19 03:23:33;;;;;;;12.50;11.15;;;;;;;;;;4205362;34;20121;-52
2021/01/19 03:25:59;;;;;;;11.27;9.93;;;;;;;;;;4204842;34;20585;-52
2021/01/19 03:28:25;;;;;;;11.77;10.48;;;;;;;;;;4204866;34;20187;-51
2021/01/19 03:30:51;;;;;;;12.45;11.15;;;;;;;;;;4205036;34;20952;-49
2021/01/19 03:33:17;;;;;;;11.52;10.30;;;;;;;;;;4205382;34;20109;-48
2021/01/19 03:35:43;;;;;;;11.98;10.77;;;;;;;;;;4205455;34;20510;-49
2021/01/19 03:38:09;;;;;;;11.88;10.68;;;;;;;;;;4205235;34;20189;-50
2021/01/19 03:40:35;;;;;;;12.05;10.63;;;;;;;;;;4204933;34;20109;-48
2021/01/19 03:43:01;;;;;;;11.45;10.30;;;;;;;;;;4192525;34;20534;-49
2021/01/19 03:45:27;;;;;;;11.23;10.10;;;;;;;;;;4205080;34;20132;-49
2021/01/19 03:47:53;;;;;;;12.75;11.30;;;;;;;;;;4205354;34;20217;-52
2021/01/19 03:50:19;;;;;;;12.30;11.10;;;;;;;;;;4204819;34;20185;-52
2021/01/19 03:52:45;;;;;;;13.98;12.57;;;;;;;;;;4205333;34;20458;-48
2021/01/19 03:55:11;;;;;;;13.77;11.90;;;;;;;;;;4205200;34;20244;-47
2021/01/19 03:57:37;;;;;;;12.18;10.98;;;;;;;;;;4205063;34;20134;-47
2021/01/19 04:00:07;;;;;;;13.50;11.95;;;;;;;;;;4204348;34;20108;-45
2021/01/19 04:02:33;;;;;;;14.43;13.02;;;;;;;;;;4192166;34;20102;-48
2021/01/19 04:04:59;;;;;;;15.25;12.68;;;;;;;;;;4204366;34;20114;-49
2021/01/19 04:07:25;;;;;;;16.30;14.02;;;;;;;;;;4204963;34;20129;-48
2021/01/19 04:09:51;;;;;;;14.35;12.85;;;;;;;;;;4204814;34;20149;-48
2021/01/19 04:12:17;;;;;;;13.80;12.23;;;;;;;;;;4205051;34;20112;-47
2021/01/19 04:14:43;;;;;;;12.73;11.38;;;;;;;;;;4205032;34;20193;-49
2021/01/19 04:17:09;;;;;;;12.27;10.65;;;;;;;;;;4205198;34;20146;-48
2021/01/19 04:19:35;;;;;;;12.25;10.95;;;;;;;;;;4204530;34;20212;-48
2021/01/19 04:22:01;;;;;;;12.07;10.75;;;;;;;;;;4204779;34;20105;-49
2021/01/19 04:24:27;;;;;;;11.80;10.60;;;;;;;;;;4204947;34;20124;-49
2021/01/19 04:26:53;;;;;;;13.20;10.48;;;;;;;;;;4204811;34;20098;-49
2021/01/19 04:29:19;;;;;;;11.98;10.68;;;;;;;;;;4204763;34;20454;-48
2021/01/19 04:31:44;;;;;;;11.18;10.05;;;;;;;;;;4204534;34;20185;-47
2021/01/19 04:34:10;;;;;;;11.57;10.38;;;;;;;;;;4204656;34;20145;-48
2021/01/19 04:36:36;;;;;;;10.30;9.32;;;;;;;;;;4204459;34;20469;-48
2021/01/19 04:39:02;;;;;;;11.32;10.20;;;;;;;;;;4204196;34;20557;-50
2021/01/19 04:41:28;;;;;;;11.95;10.73;;;;;;;;;;4203783;34;20113;-49
2021/01/19 04:43:57;;;;;;;11.32;10.18;;;;;;;;;;4204858;34;20116;-48
2021/01/19 04:46:23;;;;;;;11.75;10.52;;;;;;;;;;4191919;34;20130;-48
2021/01/19 04:48:50;;;;;;;12.40;11.05;;;;;;;;;;4180378;34;20126;-51
2021/01/19 04:51:17;;;;;;;12.23;10.25;;;;;;;;;;4191453;34;20120;-47
2021/01/19 04:53:46;;;;;;;10.35;9.32;;;;;;;;;;4204609;34;20102;-50
2021/01/19 04:56:13;;;;;;;10.50;9.40;;;;;;;;;;4177775;34;20126;-51
2021/01/19 04:58:38;;;;;;;11.27;9.50;;;;;;;;;;4189252;34;20101;-47
2021/01/19 05:01:06;;;;;;;10.77;9.68;;;;;;;;;;4177871;34;20106;-49
2021/01/19 05:03:40;;;;;;;12.00;10.13;;;;;;;;;;4190604;34;20110;-49
2021/01/19 05:06:13;;;;;;;11.07;9.93;;;;;;;;;;4199608;34;20102;-50
2021/01/19 05:08:42;;;;;;;10.68;9.57;;;;;;;;;;4204324;34;20564;-48
2021/01/19 05:11:12;;;;;;;11.43;10.30;;;;;;;;;;4204196;34;20189;-48
2021/01/19 05:13:52;;;;;;;11.30;10.20;;;;;;;;;;4180566;34;20105;-47
2021/01/19 05:16:39;;;;;;;11.27;9.82;;;;;;;;;;4204226;34;20117;-48
2021/01/19 05:19:05;;;;;;;10.50;9.40;;;;;;;;;;4203964;34;20216;-47
2021/01/19 05:21:38;;;;;;;10.52;9.48;;;;;;;;;;4204181;34;20110;-50
2021/01/19 05:24:04;;;;;;;11.98;10.18;;;;;;;;;;4204284;34;20473;-48
2021/01/19 05:26:30;;;;;;;10.73;9.68;;;;;;;;;;4192867;34;20536;-46
2021/01/19 05:28:55;;;;;;;10.35;9.25;;;;;;;;;;4166050;34;20307;-49
2021/01/19 05:31:23;;;;;;;11.70;10.48;;;;;;;;;;4211362;34;20607;-47
2021/01/19 05:33:52;;;;;;;11.00;9.90;;;;;;;;;;4218173;34;20117;-48
2021/01/19 05:36:18;;;;;;;11.82;10.23;;;;;;;;;;4217673;33;20121;-47
2021/01/19 05:38:48;;;;;;;10.95;9.43;;;;;;;;;;4218123;34;20501;-49
2021/01/19 05:41:32;;;;;;;11.93;10.23;;;;;;;;;;4217855;33;20129;-47
2021/01/19 05:44:22;;;;;;;11.63;10.45;;;;;;;;;;4218069;34;20101;-47
2021/01/19 05:47:03;;;;;;;10.88;9.77;;;;;;;;;;4217931;34;20281;-50
2021/01/19 05:49:38;;;;;;;10.93;9.82;;;;;;;;;;4217726;33;20121;-52
2021/01/19 05:52:08;;;;;;;11.27;10.00;;;;;;;;;;4211720;34;20102;-48
2021/01/19 05:54:50;;;;;;;10.30;9.25;;;;;;;;;;4206104;34;20116;-48
2021/01/19 05:57:20;;;;;;;9.98;8.98;;;;;;;;;;4206433;34;20125;-47
2021/01/19 05:59:47;;;;;;;11.60;9.73;;;;;;;;;;4205964;34;20540;-49
2021/01/19 06:02:14;;;;;;;9.43;8.45;;;;;;;;;;4205885;34;20105;-48
2021/01/19 06:04:45;;;;;;;11.02;9.23;;;;;;;;;;4206585;34;20450;-47
2021/01/19 06:07:12;;;;;;;10.30;9.27;;;;;;;;;;4219604;34;20136;-50
2021/01/19 06:09:38;;;;;;;10.55;9.45;;;;;;;;;;4219667;33;20445;-46
2021/01/19 06:12:05;;;;;;;11.82;9.32;;;;;;;;;;4220637;34;20552;-48
2021/01/19 06:14:31;;;;;;;10.93;9.85;;;;;;;;;;4219759;33;20133;-52
2021/01/19 06:17:14;;;;;;;10.90;9.80;;;;;;;;;;4219935;34;20105;-51
2021/01/19 06:19:43;;;;;;;10.60;9.50;;;;;;;;;;4217460;33;20102;-52
2021/01/19 06:22:11;;;;;;;11.57;10.38;;;;;;;;;;4179249;34;20123;-51
2021/01/19 06:24:49;;;;;;;11.25;9.77;;;;;;;;;;4193462;34;20511;-51
2021/01/19 06:27:25;;;;;;;11.32;9.88;;;;;;;;;;4220480;34;20121;-51
2021/01/19 06:30:00;;;;;;;11.20;10.10;;;;;;;;;;4220017;33;20101;-48
2021/01/19 06:32:26;;;;;;;11.32;10.18;;;;;;;;;;4219662;34;20530;-48
2021/01/19 06:34:52;;;;;;;11.05;9.88;;;;;;;;;;4219907;33;20240;-50
2021/01/19 06:37:30;;;;;;;11.32;10.10;;;;;;;;;;4206806;34;20106;-50
2021/01/19 06:39:56;;;;;;;10.52;9.38;;;;;;;;;;4219363;33;20185;-47
2021/01/19 06:42:25;;;;;;;12.15;10.38;;;;;;;;;;4219617;34;20136;-50
2021/01/19 06:44:53;;;;;;;10.40;9.30;;;;;;;;;;4219809;33;20534;-52
2021/01/19 06:47:19;;;;;;;10.25;9.23;;;;;;;;;;4206971;34;20125;-49
2021/01/19 06:49:45;;;;;;;11.10;10.00;;;;;;;;;;4219207;33;20112;-48
2021/01/19 06:52:13;;;;;;;11.27;10.02;;;;;;;;;;4219461;34;20117;-49
2021/01/19 06:54:54;;;;;;;11.65;10.45;;;;;;;;;;4219158;33;20117;-49
2021/01/19 06:57:28;;;;;;;11.35;10.15;;;;;;;;;;4219629;34;20137;-52
2021/01/19 07:00:23;;;;;;;9.90;8.90;;;;;;;;;;4219396;33;20105;-51
2021/01/19 07:02:50;;;;;;;10.52;9.43;;;;;;;;;;4219457;34;20193;-50
2021/01/19 07:05:18;;;;;;;10.68;9.57;;;;;;;;;;4218334;33;20113;-52
2021/01/19 07:07:46;;;;;;;11.55;10.35;;;;;;;;;;4219236;34;20120;-50
2021/01/19 07:10:35;;;;;;;11.60;10.40;;;;;;;;;;4219259;33;20108;-47
2021/01/19 07:13:04;;;;;;;13.05;11.40;;;;;;;;;;4203694;34;20126;-49
2021/01/19 07:16:05;;;;;;;12.55;10.90;;;;;;;;;;4219097;33;20200;-50
2021/01/19 07:18:49;;;;;;;11.50;10.30;;;;;;;;;;4219161;34;20474;-50
2021/01/19 07:21:17;;;;;;;12.37;11.12;;;;;;;;;;4219075;33;20144;-51
2021/01/19 07:23:46;;;;;;;11.93;10.55;;;;;;;;;;4219295;34;20256;-48
2021/01/19 07:26:21;;;;;;;10.68;9.57;;;;;;;;;;4199491;33;20102;-48
2021/01/19 07:28:50;;;;;;;12.35;11.12;;;;;;;;;;4191536;34;20133;-51
2021/01/19 07:31:20;;;;;;;12.95;11.43;;;;;;;;;;4191230;34;20537;-49
2021/01/19 07:33:57;;;;;;;11.93;10.65;;;;;;;;;;4191276;34;20125;-51
2021/01/19 07:36:26;;;;;;;11.52;10.20;;;;;;;;;;4213023;34;20517;-50
2021/01/19 07:38:52;;;;;;;11.65;10.25;;;;;;;;;;4219060;34;20213;-48
2021/01/19 07:41:31;;;;;;;12.10;10.90;;;;;;;;;;4218863;33;20113;-51
2021/01/19 07:43:57;;;;;;;12.45;11.02;;;;;;;;;;4218558;34;20101;-49
2021/01/19 07:46:27;;;;;;;11.75;10.55;;;;;;;;;;4184288;34;20113;-50
2021/01/19 07:49:00;;;;;;;11.90;10.10;;;;;;;;;;4191203;34;20142;-50
2021/01/19 07:51:38;;;;;;;13.10;10.93;;;;;;;;;;4213351;34;20117;-49
2021/01/19 07:54:04;;;;;;;12.20;10.88;;;;;;;;;;4218691;33;20113;-49
2021/01/19 07:56:30;;;;;;;12.05;10.85;;;;;;;;;;4218810;34;20540;-48
2021/01/19 07:58:57;;;;;;;12.18;10.85;;;;;;;;;;4218793;34;20176;-50
2021/01/19 08:01:30;;;;;;;12.68;11.38;;;;;;;;;;4218585;33;20093;-49
2021/01/19 08:04:07;;;;;;;12.05;10.32;;;;;;;;;;4205938;34;20586;-49
2021/01/19 08:06:33;;;;;;;12.85;11.55;;;;;;;;;;4195234;34;20110;-48
2021/01/19 08:09:34;;;;;;;12.52;10.80;;;;;;;;;;4191207;34;20130;-53
2021/01/19 08:12:11;;;;;;;12.75;11.45;;;;;;;;;;4186074;34;20183;-53
2021/01/19 08:14:45;;;;;;;13.25;11.85;;;;;;;;;;4192026;34;20102;-50
2021/01/19 08:17:11;;;;;;;12.13;10.82;;;;;;;;;;4217877;34;20133;-51
2021/01/19 08:19:42;;;;;;;12.50;11.00;;;;;;;;;;4218461;33;20127;-52
2021/01/19 08:22:08;;;;;;;12.65;11.35;;;;;;;;;;4218821;34;20172;-51
2021/01/19 08:24:35;;;;;;;12.10;10.93;;;;;;;;;;4217332;33;20182;-49
2021/01/19 08:27:00;;;;;;;12.05;10.52;;;;;;;;;;4191333;34;20098;-50
2021/01/19 08:29:27;;;;;;;12.77;11.43;;;;;;;;;;4190784;34;20122;-49
2021/01/19 08:31:59;;;;;;;12.70;11.40;;;;;;;;;;4218477;34;20099;-50
2021/01/19 08:34:26;;;;;;;14.50;12.55;;;;;;;;;;4218490;33;20192;-49
2021/01/19 08:36:53;;;;;;;14.10;12.13;;;;;;;;;;4191186;34;20133;-51
2021/01/19 08:39:19;;;;;;;15.35;13.70;;;;;;;;;;4190844;34;20091;-49
2021/01/19 08:41:46;;;;;;;14.68;13.20;;;;;;;;;;4216715;34;20105;-59
2021/01/19 08:44:13;;;;;;;13.77;12.40;;;;;;;;;;4218266;33;20197;-52
2021/01/19 08:46:39;;;;;;;14.27;12.80;;;;;;;;;;4218481;34;20144;-49
2021/01/19 08:49:09;;;;;;;13.52;12.13;;;;;;;;;;4217841;33;20117;-49
2021/01/19 08:51:35;;;;;;;15.38;12.00;;;;;;;;;;4218668;34;20129;-50
2021/01/19 08:54:01;;;;;;;13.32;12.02;;;;;;;;;;4218488;34;20464;-50
2021/01/19 08:56:28;;;;;;;12.57;11.25;;;;;;;;;;4218188;34;20129;-48
2021/01/19 08:58:53;;;;;;;13.02;11.73;;;;;;;;;;4218246;34;20156;-52
2021/01/19 09:01:19;;;;;;;15.38;13.80;;;;;;;;;;4218226;33;20136;-48
2021/01/19 09:03:56;;;;;;;14.30;12.80;;;;;;;;;;4218521;34;20133;-48
2021/01/19 09:06:22;;;;;;;13.93;12.50;;;;;;;;;;4196608;33;20106;-59
2021/01/19 09:08:56;;;;;;;15.98;13.93;;;;;;;;;;4190390;34;20114;-52
2021/01/19 09:11:32;;;;;;;15.90;13.77;;;;;;;;;;4203251;34;20086;-48
2021/01/19 09:14:09;;;;;;;18.05;15.25;;;;;;;;;;4203914;34;20090;-53
2021/01/19 09:16:35;;;;;;;16.10;14.40;;;;;;;;;;4215844;34;20121;-52
2021/01/19 09:19:04;;;;;;;15.57;13.95;;;;;;;;;;4217777;34;20117;-50
2021/01/19 09:21:30;;;;;;;15.90;14.15;;;;;;;;;;4194925;34;20098;-49
2021/01/19 09:23:56;;;;;;;16.67;14.87;;;;;;;;;;4190395;34;20109;-49
2021/01/19 09:26:22;;;;;;;18.00;15.40;;;;;;;;;;4211102;34;20121;-51
2021/01/19 09:28:48;;;;;;;23.90;21.20;;;;;;;;;;4219886;34;20549;-55
2021/01/19 09:31:21;;;;;;;22.50;19.60;;;;;;;;;;4200075;33;20114;-54
2021/01/19 09:33:49;;;;;;;21.62;18.58;;;;;;;;;;4192390;34;20099;-54
2021/01/19 09:36:15;;;;;;;17.10;15.40;;;;;;;;;;4192030;34;20098;-51
2021/01/19 09:38:50;;;;;;;16.52;14.82;;;;;;;;;;4192061;34;20098;-50
2021/01/19 09:41:20;;;;;;;16.00;14.38;;;;;;;;;;4212180;34;20154;-50
2021/01/19 09:43:56;;;;;;;17.15;14.02;;;;;;;;;;4207470;34;20245;-52
2021/01/19 09:46:26;;;;;;;15.73;14.13;;;;;;;;;;4185665;34;20163;-52
2021/01/19 09:48:55;;;;;;;15.95;14.23;;;;;;;;;;4179297;34;20572;-54
2021/01/19 09:51:28;;;;;;;18.48;14.38;;;;;;;;;;4213021;34;20094;-53
2021/01/19 09:53:58;;;;;;;15.77;13.68;;;;;;;;;;4206949;34;20128;-57
2021/01/19 09:56:24;;;;;;;14.38;12.88;;;;;;;;;;4215028;33;20102;-56
2021/01/19 09:59:00;;;;;;;15.75;12.93;;;;;;;;;;4206114;34;20461;-55
2021/01/19 10:01:27;;;;;;;18.15;13.80;;;;;;;;;;4216847;34;20098;-55
2021/01/19 10:03:52;;;;;;;15.05;13.45;;;;;;;;;;4219965;34;20104;-54
2021/01/19 10:06:23;;;;;;;14.52;12.82;;;;;;;;;;4183745;34;20213;-53
2021/01/19 10:08:51;;;;;;;15.45;13.65;;;;;;;;;;4178259;34;20103;-51
2021/01/19 10:11:54;;;;;;;15.23;13.07;;;;;;;;;;4198172;34;20216;-56
2021/01/19 10:14:20;;;;;;;16.65;14.55;;;;;;;;;;4203131;34;20130;-53
2021/01/19 10:16:47;;;;;;;15.75;14.05;;;;;;;;;;4205600;34;20510;-48
2021/01/19 10:19:27;;;;;;;16.83;13.57;;;;;;;;;;4205664;34;20609;-52
2021/01/19 10:21:54;;;;;;;15.73;13.68;;;;;;;;;;4205792;34;20594;-54
2021/01/19 10:24:21;;;;;;;15.23;13.62;;;;;;;;;;4205378;34;20185;-55
2021/01/19 10:27:06;;;;;;;16.87;13.75;;;;;;;;;;4179802;34;20090;-53
2021/01/19 10:29:39;;;;;;;15.48;13.00;;;;;;;;;;4178250;34;20298;-51
2021/01/19 10:32:06;;;;;;;15.25;13.43;;;;;;;;;;4205959;34;20105;-53
2021/01/19 10:34:35;;;;;;;14.73;13.13;;;;;;;;;;4205272;34;20556;-55
2021/01/19 10:37:02;;;;;;;15.18;13.35;;;;;;;;;;4177979;34;20547;-51
2021/01/19 10:39:30;;;;;;;15.02;13.52;;;;;;;;;;4177379;34;20491;-50
2021/01/19 10:41:56;;;;;;;14.65;13.15;;;;;;;;;;4176672;34;20087;-49
2021/01/19 10:44:24;;;;;;;14.87;13.27;;;;;;;;;;4178055;34;20628;-54
2021/01/19 10:46:57;;;;;;;14.87;13.30;;;;;;;;;;4204152;34;20106;-48
2021/01/19 10:49:27;;;;;;;17.52;14.55;;;;;;;;;;4205324;34;20544;-49
2021/01/19 10:51:53;;;;;;;16.55;14.55;;;;;;;;;;4200917;34;20434;-50
2021/01/19 10:54:21;;;;;;;17.37;14.55;;;;;;;;;;4181708;34;20098;-49
2021/01/19 10:56:59;;;;;;;15.85;14.15;;;;;;;;;;4190351;34;20118;-51
2021/01/19 10:59:25;;;;;;;16.05;14.35;;;;;;;;;;4191471;34;20427;-51
2021/01/19 11:01:51;;;;;;;17.37;13.30;;;;;;;;;;4178958;34;20118;-50
2021/01/19 11:04:26;;;;;;;16.10;14.40;;;;;;;;;;4192176;34;20117;-50
2021/01/19 11:06:52;;;;;;;15.67;13.70;;;;;;;;;;4205362;34;20129;-51
2021/01/19 11:09:18;;;;;;;14.25;12.48;;;;;;;;;;4205306;34;20588;-52
2021/01/19 11:11:44;;;;;;;16.67;14.45;;;;;;;;;;4205363;34;20100;-49
2021/01/19 11:14:10;;;;;;;15.68;13.88;;;;;;;;;;4205686;34;20113;-51
2021/01/19 11:16:38;;;;;;;16.90;14.55;;;;;;;;;;4205496;34;20091;-54
2021/01/19 11:19:07;;;;;;;16.65;14.95;;;;;;;;;;4204987;34;20089;-49
2021/01/19 11:21:33;;;;;;;15.15;13.48;;;;;;;;;;4205260;34;20152;-49
2021/01/19 11:24:00;;;;;;;19.27;17.25;;;;;;;;;;4205320;34;20477;-53
2021/01/19 11:26:26;;;;;;;15.27;13.52;;;;;;;;;;4205191;34;20117;-48
2021/01/19 11:28:52;;;;;;;16.52;14.50;;;;;;;;;;4204866;34;20457;-55
2021/01/19 11:31:26;;;;;;;19.27;14.98;;;;;;;;;;4205369;34;20114;-52
2021/01/19 11:33:55;;;;;;;16.58;14.13;;;;;;;;;;4192820;34;20114;-53
2021/01/19 11:36:22;;;;;;;18.73;14.80;;;;;;;;;;4205258;34;20118;-54
2021/01/19 11:38:48;;;;;;;19.20;15.48;;;;;;;;;;4205141;34;20285;-53
2021/01/19 11:41:16;;;;;;;19.60;15.60;;;;;;;;;;4204964;34;20114;-53
2021/01/19 11:43:42;;;;;;;22.37;15.48;;;;;;;;;;4205531;34;20132;-55
2021/01/19 11:46:08;;;;;;;19.70;14.32;;;;;;;;;;4204897;34;20097;-52
2021/01/19 11:48:34;;;;;;;17.33;14.82;;;;;;;;;;4204746;34;20093;-53
2021/01/19 11:51:00;;;;;;;19.60;15.40;;;;;;;;;;4204981;34;20104;-53
2021/01/19 11:53:26;;;;;;;19.23;15.15;;;;;;;;;;4205070;34;20096;-53
2021/01/19 11:55:52;;;;;;;20.83;15.55;;;;;;;;;;4205106;34;20130;-56
2021/01/19 11:58:18;;;;;;;18.75;14.10;;;;;;;;;;4204601;34;20518;-56
2021/01/19 12:00:44;;;;;;;16.33;14.55;;;;;;;;;;4204879;34;20132;-55
2021/01/19 12:03:18;;;;;;;19.70;14.77;;;;;;;;;;4204779;34;20458;-51
2021/01/19 12:05:53;;;;;;;17.58;14.95;;;;;;;;;;4204499;34;20074;-54
2021/01/19 12:08:24;;;;;;;17.50;14.70;;;;;;;;;;4191642;34;20113;-51
2021/01/19 12:10:50;;;;;;;21.58;15.07;;;;;;;;;;4205083;34;20105;-50
2021/01/19 12:13:15;;;;;;;17.08;14.43;;;;;;;;;;4205021;34;20106;-53
2021/01/19 12:15:42;;;;;;;16.77;13.65;;;;;;;;;;4205154;34;20098;-51
2021/01/19 12:18:11;;;;;;;20.12;14.85;;;;;;;;;;4204877;34;20184;-58
2021/01/19 12:20:37;;;;;;;17.95;14.48;;;;;;;;;;4204509;34;20116;-59
2021/01/19 12:23:04;;;;;;;18.85;13.35;;;;;;;;;;4204799;34;20122;-52
2021/01/19 12:25:30;;;;;;;19.58;14.27;;;;;;;;;;4204854;34;20138;-48
2021/01/19 12:27:57;;;;;;;20.45;14.20;;;;;;;;;;4204860;34;20193;-54
2021/01/19 12:30:23;;;;;;;19.08;13.95;;;;;;;;;;4204943;34;20109;-48
2021/01/19 12:32:49;;;;;;;18.85;14.40;;;;;;;;;;4205130;34;20431;-49
2021/01/19 12:35:15;;;;;;;17.73;14.23;;;;;;;;;;4204755;34;20126;-49
2021/01/19 12:37:41;;;;;;;19.95;15.25;;;;;;;;;;4204744;34;20128;-48
2021/01/19 12:40:08;;;;;;;17.90;15.20;;;;;;;;;;4204739;34;20533;-52
2021/01/19 12:42:34;;;;;;;17.35;14.18;;;;;;;;;;4204936;34;20109;-48
2021/01/19 12:45:00;;;;;;;17.30;13.43;;;;;;;;;;4204454;34;20177;-51
2021/01/19 12:47:26;;;;;;;19.73;13.57;;;;;;;;;;4204885;34;20453;-50
2021/01/19 12:49:52;;;;;;;17.25;13.27;;;;;;;;;;4200791;34;20505;-50
2021/01/19 12:52:18;;;;;;;17.17;13.35;;;;;;;;;;4204043;34;20265;-49
2021/01/19 12:54:44;;;;;;;19.60;14.02;;;;;;;;;;4204381;34;20130;-53
2021/01/19 12:57:14;;;;;;;16.55;13.62;;;;;;;;;;4203963;34;20125;-53
2021/01/19 12:59:43;;;;;;;20.88;13.32;;;;;;;;;;4200722;34;20089;-52
2021/01/19 13:02:09;;;;;;;21.35;14.52;;;;;;;;;;4203357;34;20140;-54
2021/01/19 13:04:36;;;;;;;21.45;13.75;;;;;;;;;;4203624;34;20546;-50
2021/01/19 13:07:02;;;;;;;23.75;15.32;;;;;;;;;;4191625;34;20108;-52
2021/01/19 13:09:28;;;;;;;25.48;16.05;;;;;;;;;;4204374;34;20145;-50
2021/01/19 13:11:54;;;;;;;22.60;16.80;;;;;;;;;;4191490;34;20184;-52
2021/01/19 13:14:20;;;;;;;22.20;17.50;;;;;;;;;;4200490;34;20208;-53
2021/01/19 13:16:46;;;;;;;27.75;18.75;;;;;;;;;;4204122;34;20124;-51
2021/01/19 13:19:12;;;;;;;26.20;18.00;;;;;;;;;;4203661;34;20101;-51
2021/01/19 13:21:38;;;;;;;25.30;19.30;;;;;;;;;;4204230;34;20098;-49
2021/01/19 13:24:05;;;;;;;27.17;21.37;;;;;;;;;;4203911;34;20113;-49
2021/01/19 13:26:31;;;;;;;26.48;19.92;;;;;;;;;;4203695;34;20169;-51
2021/01/19 13:28:57;;;;;;;29.63;21.80;;;;;;;;;;4203715;34;20101;-51
2021/01/19 13:31:26;;;;;;;27.15;20.40;;;;;;;;;;4203841;34;20102;-51
2021/01/19 13:33:53;;;;;;;27.98;20.27;;;;;;;;;;4204086;34;20090;-50
2021/01/19 13:36:18;;;;;;;29.02;20.58;;;;;;;;;;4203994;34;20106;-52
2021/01/19 13:38:45;;;;;;;25.73;20.58;;;;;;;;;;4203551;34;20117;-48
2021/01/19 13:41:17;;;;;;;22.70;18.00;;;;;;;;;;4203666;34;20454;-50
2021/01/19 13:43:43;;;;;;;19.45;16.70;;;;;;;;;;4203745;34;20102;-50
2021/01/19 13:46:09;;;;;;;18.60;15.93;;;;;;;;;;4203817;34;20197;-47
2021/01/19 13:48:38;;;;;;;19.55;15.95;;;;;;;;;;4203756;34;20100;-49
2021/01/19 13:51:04;;;;;;;19.65;16.85;;;;;;;;;;4203468;34;20118;-50
2021/01/19 13:53:30;;;;;;;25.33;19.87;;;;;;;;;;4203730;34;20090;-47
2021/01/19 13:55:56;;;;;;;22.42;19.73;;;;;;;;;;4203772;34;20108;-48
2021/01/19 13:58:22;;;;;;;22.83;20.35;;;;;;;;;;4203375;34;20109;-50
2021/01/19 14:00:49;;;;;;;21.98;19.52;;;;;;;;;;4203772;34;20174;-49
2021/01/19 14:03:15;;;;;;;24.17;18.65;;;;;;;;;;4203805;34;20198;-51
2021/01/19 14:05:41;;;;;;;20.90;17.33;;;;;;;;;;4190731;34;20121;-50
2021/01/19 14:08:09;;;;;;;18.58;16.33;;;;;;;;;;4203085;34;20121;-56
2021/01/19 14:10:35;;;;;;;23.10;18.30;;;;;;;;;;4199900;34;20133;-50
2021/01/19 14:13:01;;;;;;;21.15;17.48;;;;;;;;;;4203727;34;20118;-51
2021/01/19 14:15:27;;;;;;;16.45;14.65;;;;;;;;;;4209483;34;20121;-50
2021/01/19 14:17:52;;;;;;;18.30;15.85;;;;;;;;;;4219528;34;20529;-52
2021/01/19 14:20:18;;;;;;;29.77;16.05;;;;;;;;;;4209411;34;20125;-51
2021/01/19 14:22:44;;;;;;;21.98;18.35;;;;;;;;;;4215747;34;20113;-49
2021/01/19 14:25:11;;;;;;;19.15;16.23;;;;;;;;;;4207762;34;20180;-51
2021/01/19 14:27:37;;;;;;;19.55;16.35;;;;;;;;;;4219723;34;20093;-48
2021/01/19 14:30:05;;;;;;;23.35;18.98;;;;;;;;;;4219336;33;20106;-50
2021/01/19 14:32:31;;;;;;;20.55;17.30;;;;;;;;;;4219622;34;20181;-50
2021/01/19 14:34:56;;;;;;;17.77;15.35;;;;;;;;;;4219249;33;20109;-48